Time;durP1;ratioP1;P1;durP2;ratioP2;P2;SDS_P1;SDS_P2;PMS_P1;PMS_P2;Temp;Humidity;BMP_temperature;BMP_pressure;BME280_temperature;BME280_humidity;BME280_pressure;Samples;Min_cycle;Max_cycle;Signal;HPM_P1;HPM_P2
2021/03/03 00:01:41;;;;;;;111.37;53.30;;;;;;;;;;4320195;33;20341;-54
2021/03/03 00:04:07;;;;;;;103.87;55.33;;;;;;;;;;4323124;33;20290;-54
2021/03/03 00:06:32;;;;;;;95.57;50.63;;;;;;;;;;4320547;33;20277;-54
2021/03/03 00:08:58;;;;;;;97.40;51.43;;;;;;;;;;4323096;33;20314;-54
2021/03/03 00:11:24;;;;;;;76.60;43.03;;;;;;;;;;4323656;33;20364;-56
2021/03/03 00:13:49;;;;;;;76.63;40.13;;;;;;;;;;4323129;33;20230;-56
2021/03/03 00:16:15;;;;;;;67.83;37.73;;;;;;;;;;4320284;33;20308;-54
2021/03/03 00:18:41;;;;;;;66.33;38.63;;;;;;;;;;4322917;33;20362;-53
2021/03/03 00:21:06;;;;;;;61.67;35.60;;;;;;;;;;4327412;33;20298;-55
2021/03/03 00:23:32;;;;;;;52.63;31.27;;;;;;;;;;4317280;33;20661;-54
2021/03/03 00:25:57;;;;;;;51.60;29.93;;;;;;;;;;4320994;33;20394;-54
2021/03/03 00:28:23;;;;;;;69.70;36.70;;;;;;;;;;4345336;32;20309;-56
2021/03/03 00:30:48;;;;;;;77.27;36.63;;;;;;;;;;4321148;33;20291;-57
2021/03/03 00:33:14;;;;;;;55.77;29.33;;;;;;;;;;4321774;33;20230;-57
2021/03/03 00:35:39;;;;;;;64.37;33.83;;;;;;;;;;4345013;32;20310;-58
2021/03/03 00:38:05;;;;;;;68.90;34.37;;;;;;;;;;4313601;33;20267;-59
2021/03/03 00:40:31;;;;;;;58.60;40.53;;;;;;;;;;4320834;33;20299;-59
2021/03/03 00:42:57;;;;;;;48.47;32.17;;;;;;;;;;4312420;33;20269;-58
2021/03/03 00:45:23;;;;;;;81.20;46.70;;;;;;;;;;4319789;33;20314;-53
2021/03/03 00:47:48;;;;;;;61.57;30.80;;;;;;;;;;4321301;33;20408;-53
2021/03/03 00:50:14;;;;;;;38.57;22.03;;;;;;;;;;4319972;33;20299;-53
2021/03/03 00:52:39;;;;;;;39.33;20.73;;;;;;;;;;4319424;33;20318;-54
2021/03/03 00:55:05;;;;;;;44.17;22.57;;;;;;;;;;4320626;33;20307;-54
2021/03/03 00:57:31;;;;;;;48.33;21.83;;;;;;;;;;4321237;33;20374;-53
2021/03/03 00:59:56;;;;;;;33.13;18.80;;;;;;;;;;4320985;33;20290;-53
2021/03/03 01:02:22;;;;;;;32.40;19.27;;;;;;;;;;4320676;33;20331;-53
2021/03/03 01:04:47;;;;;;;39.93;19.23;;;;;;;;;;4321134;33;20764;-53
2021/03/03 01:07:13;;;;;;;27.13;16.77;;;;;;;;;;4320265;33;20298;-53
2021/03/03 01:09:39;;;;;;;31.63;17.47;;;;;;;;;;4322672;33;20234;-53
2021/03/03 01:12:04;;;;;;;31.57;18.67;;;;;;;;;;4311418;33;20325;-53
2021/03/03 01:14:30;;;;;;;39.67;21.03;;;;;;;;;;4318088;33;20239;-53
2021/03/03 01:16:56;;;;;;;37.43;20.90;;;;;;;;;;4323227;33;20765;-55
2021/03/03 01:19:21;;;;;;;40.90;22.10;;;;;;;;;;4321838;33;20246;-53
2021/03/03 01:21:47;;;;;;;44.73;24.23;;;;;;;;;;4326525;33;20428;-54
2021/03/03 01:24:15;;;;;;;44.00;24.87;;;;;;;;;;4322850;33;20302;-53
2021/03/03 01:26:41;;;;;;;51.83;27.93;;;;;;;;;;4315813;33;20235;-54
2021/03/03 01:29:07;;;;;;;63.27;34.50;;;;;;;;;;4319284;33;20231;-53
2021/03/03 01:31:33;;;;;;;40.60;18.83;;;;;;;;;;4315460;33;20421;-54
2021/03/03 01:33:59;;;;;;;56.67;27.07;;;;;;;;;;4345571;32;20706;-54
2021/03/03 01:36:25;;;;;;;37.50;23.13;;;;;;;;;;4315641;33;20224;-54
2021/03/03 01:38:50;;;;;;;28.97;17.23;;;;;;;;;;4327605;33;20394;-53
2021/03/03 01:41:16;;;;;;;28.83;16.30;;;;;;;;;;4312688;33;20282;-55
2021/03/03 01:43:42;;;;;;;24.00;12.57;;;;;;;;;;4318275;33;20376;-54
2021/03/03 01:46:07;;;;;;;27.23;14.30;;;;;;;;;;4340544;32;20314;-55
2021/03/03 01:48:33;;;;;;;27.13;15.80;;;;;;;;;;4317645;33;20222;-54
2021/03/03 01:50:59;;;;;;;29.17;16.70;;;;;;;;;;4317903;33;20708;-53
2021/03/03 01:53:24;;;;;;;35.90;21.27;;;;;;;;;;4344420;32;20271;-53
2021/03/03 01:55:50;;;;;;;39.33;19.87;;;;;;;;;;4318739;33;20784;-53
2021/03/03 01:58:16;;;;;;;40.97;23.00;;;;;;;;;;4316351;33;20400;-52
2021/03/03 02:00:41;;;;;;;53.17;26.60;;;;;;;;;;4318998;33;20330;-54
2021/03/03 02:03:07;;;;;;;33.73;19.53;;;;;;;;;;4316188;33;20346;-53
2021/03/03 02:05:33;;;;;;;30.87;17.43;;;;;;;;;;4319095;33;20220;-53
2021/03/03 02:08:23;;;;;;;35.90;18.87;;;;;;;;;;4337954;33;20289;-54
2021/03/03 02:11:04;;;;;;;39.63;22.93;;;;;;;;;;4321998;33;20297;-52
2021/03/03 02:13:52;;;;;;;42.63;22.60;;;;;;;;;;4324181;33;20363;-53
2021/03/03 02:16:19;;;;;;;35.50;22.50;;;;;;;;;;4324237;33;20796;-53
2021/03/03 02:18:45;;;;;;;38.87;22.17;;;;;;;;;;4321854;33;20653;-54
2021/03/03 02:21:36;;;;;;;37.57;21.00;;;;;;;;;;4321423;33;20214;-54
2021/03/03 02:24:08;;;;;;;54.13;26.40;;;;;;;;;;4327796;32;20637;-54
2021/03/03 02:26:35;;;;;;;56.77;33.83;;;;;;;;;;4331828;33;20215;-53
2021/03/03 02:29:06;;;;;;;76.33;42.90;;;;;;;;;;4323314;33;20516;-53
2021/03/03 02:31:33;;;;;;;62.03;31.37;;;;;;;;;;4317287;33;20207;-52
2021/03/03 02:34:01;;;;;;;61.23;30.13;;;;;;;;;;4347767;32;20453;-53
2021/03/03 02:36:27;;;;;;;66.57;33.57;;;;;;;;;;4341172;32;20235;-54
2021/03/03 02:38:53;;;;;;;57.63;31.30;;;;;;;;;;4320271;33;20218;-54
2021/03/03 02:41:18;;;;;;;51.83;29.67;;;;;;;;;;4318377;33;20841;-54
2021/03/03 02:43:45;;;;;;;43.80;26.53;;;;;;;;;;4319596;33;20239;-53
2021/03/03 02:46:11;;;;;;;49.03;24.30;;;;;;;;;;4319417;33;20359;-53
2021/03/03 02:48:38;;;;;;;40.70;22.90;;;;;;;;;;4318483;33;20752;-54
2021/03/03 02:51:04;;;;;;;32.77;18.33;;;;;;;;;;4320183;33;20712;-54
2021/03/03 02:53:29;;;;;;;35.53;18.97;;;;;;;;;;4327359;33;20634;-53
2021/03/03 02:55:55;;;;;;;32.00;18.60;;;;;;;;;;4319871;33;20756;-52
2021/03/03 02:58:21;;;;;;;34.97;20.30;;;;;;;;;;4317923;33;20253;-53
2021/03/03 03:00:52;;;;;;;33.30;19.37;;;;;;;;;;4323059;33;20297;-54
2021/03/03 03:03:23;;;;;;;31.83;19.63;;;;;;;;;;4325956;33;20285;-56
2021/03/03 03:06:04;;;;;;;32.97;18.60;;;;;;;;;;4321710;33;20309;-57
2021/03/03 03:08:32;;;;;;;34.20;19.63;;;;;;;;;;4340431;32;20359;-57
2021/03/03 03:11:03;;;;;;;34.57;19.17;;;;;;;;;;4324918;33;20207;-56
2021/03/03 03:13:30;;;;;;;34.90;19.63;;;;;;;;;;4324864;33;20771;-53
2021/03/03 03:15:57;;;;;;;41.83;20.27;;;;;;;;;;4319206;33;20686;-53
2021/03/03 03:18:28;;;;;;;41.07;20.33;;;;;;;;;;4318342;33;20227;-52
2021/03/03 03:20:54;;;;;;;42.57;21.20;;;;;;;;;;4321078;33;20203;-53
2021/03/03 03:23:22;;;;;;;36.70;19.97;;;;;;;;;;4317812;33;20731;-53
2021/03/03 03:25:48;;;;;;;41.70;23.80;;;;;;;;;;4326800;33;20219;-52
2021/03/03 03:28:13;;;;;;;42.60;23.47;;;;;;;;;;4333009;32;20253;-53
2021/03/03 03:30:40;;;;;;;37.30;20.97;;;;;;;;;;4331449;33;20597;-53
2021/03/03 03:33:06;;;;;;;36.73;20.07;;;;;;;;;;4348767;32;20302;-53
2021/03/03 03:35:32;;;;;;;37.20;20.43;;;;;;;;;;4321012;33;20326;-53
2021/03/03 03:38:00;;;;;;;37.63;20.70;;;;;;;;;;4316223;33;20223;-53
2021/03/03 03:40:25;;;;;;;41.23;22.63;;;;;;;;;;4322377;33;20269;-54
2021/03/03 03:42:56;;;;;;;42.17;25.57;;;;;;;;;;4315806;33;20760;-53
2021/03/03 03:45:23;;;;;;;49.87;27.77;;;;;;;;;;4322649;33;20535;-53
2021/03/03 03:47:49;;;;;;;53.57;31.30;;;;;;;;;;4314081;33;20329;-54
2021/03/03 03:50:15;;;;;;;58.73;32.20;;;;;;;;;;4333070;33;20466;-54
2021/03/03 03:52:41;;;;;;;52.60;33.37;;;;;;;;;;4324616;33;20231;-53
2021/03/03 03:55:07;;;;;;;56.13;32.77;;;;;;;;;;4322364;33;20282;-53
2021/03/03 03:57:47;;;;;;;61.70;32.37;;;;;;;;;;4314471;33;20283;-53
2021/03/03 04:00:19;;;;;;;61.27;37.67;;;;;;;;;;4324244;33;20566;-53
2021/03/03 04:02:45;;;;;;;62.70;35.07;;;;;;;;;;4316383;33;20672;-53
2021/03/03 04:05:12;;;;;;;56.73;30.73;;;;;;;;;;4344286;32;21121;-53
2021/03/03 04:07:39;;;;;;;62.00;33.23;;;;;;;;;;4314334;33;20429;-52
2021/03/03 04:10:05;;;;;;;57.77;33.17;;;;;;;;;;4322540;33;20289;-53
2021/03/03 04:12:31;;;;;;;62.13;36.00;;;;;;;;;;4327493;33;20326;-54
2021/03/03 04:14:56;;;;;;;68.57;35.33;;;;;;;;;;4331955;33;20676;-53
2021/03/03 04:17:22;;;;;;;55.50;32.83;;;;;;;;;;4314137;33;20327;-53
2021/03/03 04:19:47;;;;;;;53.90;34.20;;;;;;;;;;4322976;33;20277;-52
2021/03/03 04:22:13;;;;;;;57.27;32.83;;;;;;;;;;4315094;33;20806;-53
2021/03/03 04:24:39;;;;;;;73.63;38.07;;;;;;;;;;4321788;33;20764;-53
2021/03/03 04:27:04;;;;;;;66.17;34.70;;;;;;;;;;4316360;33;20294;-54
2021/03/03 04:29:30;;;;;;;67.57;35.27;;;;;;;;;;4320870;33;20241;-54
2021/03/03 04:31:55;;;;;;;78.93;40.67;;;;;;;;;;4327153;33;20365;-55
2021/03/03 04:34:21;;;;;;;64.30;36.50;;;;;;;;;;4322098;33;20253;-56
2021/03/03 04:36:47;;;;;;;101.33;45.97;;;;;;;;;;4317145;33;20348;-58
2021/03/03 04:39:12;;;;;;;100.07;50.03;;;;;;;;;;4319153;33;20674;-59
2021/03/03 04:41:38;;;;;;;99.80;52.07;;;;;;;;;;4318830;33;20763;-58
2021/03/03 04:44:03;;;;;;;95.70;51.37;;;;;;;;;;4321197;33;20353;-57
2021/03/03 04:46:29;;;;;;;88.37;40.70;;;;;;;;;;4316635;33;20270;-57
2021/03/03 04:48:55;;;;;;;74.57;35.90;;;;;;;;;;4319255;33;20219;-57
2021/03/03 04:51:20;;;;;;;64.13;35.03;;;;;;;;;;4317097;33;20297;-53
2021/03/03 04:53:46;;;;;;;72.73;38.73;;;;;;;;;;4320241;33;20224;-52
2021/03/03 04:56:11;;;;;;;80.60;42.70;;;;;;;;;;4323858;33;20305;-55
2021/03/03 04:58:37;;;;;;;108.60;51.93;;;;;;;;;;4321615;33;20790;-53
2021/03/03 05:01:03;;;;;;;97.60;49.13;;;;;;;;;;4320527;33;20333;-53
2021/03/03 05:03:28;;;;;;;101.27;48.30;;;;;;;;;;4316283;33;20349;-53
2021/03/03 05:05:54;;;;;;;74.80;41.27;;;;;;;;;;4329756;33;20231;-52
2021/03/03 05:08:19;;;;;;;64.73;38.23;;;;;;;;;;4334423;33;20449;-54
2021/03/03 05:10:45;;;;;;;69.23;37.80;;;;;;;;;;4350124;32;20321;-52
2021/03/03 05:13:15;;;;;;;65.30;35.30;;;;;;;;;;4323667;33;20385;-52
2021/03/03 05:15:41;;;;;;;71.87;36.17;;;;;;;;;;4322496;33;20636;-53
2021/03/03 05:18:10;;;;;;;61.97;36.07;;;;;;;;;;4326375;33;20289;-52
2021/03/03 05:20:37;;;;;;;61.10;35.33;;;;;;;;;;4323250;33;20219;-54
2021/03/03 05:23:04;;;;;;;69.77;36.00;;;;;;;;;;4316053;33;20250;-54
2021/03/03 05:25:30;;;;;;;66.37;35.60;;;;;;;;;;4320921;33;20204;-55
2021/03/03 05:27:56;;;;;;;71.57;40.87;;;;;;;;;;4316079;33;20219;-56
2021/03/03 05:30:23;;;;;;;70.03;37.07;;;;;;;;;;4344060;32;20764;-57
2021/03/03 05:32:49;;;;;;;77.40;42.37;;;;;;;;;;4321134;33;20326;-55
2021/03/03 05:35:15;;;;;;;80.60;44.53;;;;;;;;;;4320070;33;20337;-53
2021/03/03 05:37:40;;;;;;;76.27;41.03;;;;;;;;;;4314124;33;20200;-53
2021/03/03 05:40:07;;;;;;;75.17;43.37;;;;;;;;;;4345315;32;20299;-54
2021/03/03 05:42:35;;;;;;;82.43;46.43;;;;;;;;;;4337039;33;20374;-53
2021/03/03 05:45:02;;;;;;;79.03;46.10;;;;;;;;;;4321859;33;20212;-52
2021/03/03 05:47:32;;;;;;;70.07;40.13;;;;;;;;;;4314383;33;20246;-56
2021/03/03 05:50:00;;;;;;;79.93;44.97;;;;;;;;;;4322807;33;20207;-53
2021/03/03 05:52:28;;;;;;;82.83;45.33;;;;;;;;;;4314248;33;20216;-55
2021/03/03 05:54:55;;;;;;;85.07;46.57;;;;;;;;;;4322506;33;20293;-56
2021/03/03 05:57:21;;;;;;;63.10;36.27;;;;;;;;;;4313469;33;20211;-55
2021/03/03 05:59:47;;;;;;;60.23;33.60;;;;;;;;;;4330198;33;20232;-55
2021/03/03 06:02:14;;;;;;;66.77;37.23;;;;;;;;;;4314299;33;20852;-55
2021/03/03 06:04:40;;;;;;;63.57;37.57;;;;;;;;;;4321598;33;20301;-55
2021/03/03 06:07:07;;;;;;;57.77;35.40;;;;;;;;;;4336716;33;20321;-56
2021/03/03 06:09:32;;;;;;;71.93;39.70;;;;;;;;;;4322069;33;20253;-53
2021/03/03 06:11:58;;;;;;;65.50;38.77;;;;;;;;;;4326849;33;20298;-53
2021/03/03 06:14:24;;;;;;;68.70;39.03;;;;;;;;;;4318525;33;20227;-53
2021/03/03 06:16:49;;;;;;;81.50;44.40;;;;;;;;;;4324012;33;20290;-55
2021/03/03 06:19:16;;;;;;;104.07;56.43;;;;;;;;;;4320421;33;20347;-57
2021/03/03 06:21:42;;;;;;;107.53;60.43;;;;;;;;;;4313984;33;20216;-56
2021/03/03 06:24:10;;;;;;;98.30;54.57;;;;;;;;;;4319842;33;20417;-56
2021/03/03 06:26:54;;;;;;;110.30;54.07;;;;;;;;;;4337700;32;20227;-56
2021/03/03 06:29:19;;;;;;;98.00;51.50;;;;;;;;;;4321060;33;20234;-57
2021/03/03 06:31:47;;;;;;;96.23;52.83;;;;;;;;;;4316003;33;20286;-58
2021/03/03 06:34:18;;;;;;;96.17;56.93;;;;;;;;;;4321395;33;20231;-58
2021/03/03 06:37:04;;;;;;;102.03;55.70;;;;;;;;;;4313686;33;20223;-57
2021/03/03 06:39:36;;;;;;;84.43;51.07;;;;;;;;;;4317588;33;20231;-55
2021/03/03 06:42:07;;;;;;;92.83;55.60;;;;;;;;;;4327131;33;20715;-57
2021/03/03 06:44:46;;;;;;;91.30;51.80;;;;;;;;;;4318839;33;20605;-52
2021/03/03 06:47:12;;;;;;;101.03;60.77;;;;;;;;;;4327205;33;20273;-53
2021/03/03 06:49:37;;;;;;;92.27;52.03;;;;;;;;;;4319445;33;20661;-52
2021/03/03 06:52:03;;;;;;;100.60;56.57;;;;;;;;;;4311283;33;20310;-54
2021/03/03 06:54:29;;;;;;;78.57;45.97;;;;;;;;;;4317922;33;20269;-53
2021/03/03 06:56:55;;;;;;;63.70;38.60;;;;;;;;;;4320382;33;20278;-53
2021/03/03 06:59:33;;;;;;;55.40;36.27;;;;;;;;;;4318788;33;20239;-53
2021/03/03 07:02:01;;;;;;;60.70;33.27;;;;;;;;;;4313637;33;20780;-52
2021/03/03 07:04:35;;;;;;;49.23;31.17;;;;;;;;;;4319120;33;20239;-53
2021/03/03 07:07:10;;;;;;;47.73;29.23;;;;;;;;;;4314900;33;20334;-52
2021/03/03 07:09:37;;;;;;;49.10;28.43;;;;;;;;;;4328468;33;20727;-52
2021/03/03 07:12:06;;;;;;;52.07;30.83;;;;;;;;;;4329632;33;20282;-53
2021/03/03 07:14:32;;;;;;;48.67;28.60;;;;;;;;;;4321821;33;20243;-53
2021/03/03 07:17:09;;;;;;;54.00;27.50;;;;;;;;;;4317802;33;20372;-53
2021/03/03 07:19:40;;;;;;;60.30;31.50;;;;;;;;;;4321939;33;20219;-53
2021/03/03 07:22:25;;;;;;;56.00;29.57;;;;;;;;;;4316831;33;20278;-53
2021/03/03 07:24:52;;;;;;;52.07;29.00;;;;;;;;;;4345587;32;20307;-53
2021/03/03 07:27:19;;;;;;;54.43;28.23;;;;;;;;;;4314849;33;20296;-53
2021/03/03 07:29:51;;;;;;;44.77;27.50;;;;;;;;;;4322110;33;20290;-53
2021/03/03 07:32:20;;;;;;;51.50;24.50;;;;;;;;;;4319762;33;20602;-53
2021/03/03 07:34:48;;;;;;;46.50;25.70;;;;;;;;;;4321951;33;20274;-52
2021/03/03 07:37:16;;;;;;;44.27;25.27;;;;;;;;;;4320128;33;20255;-53
2021/03/03 07:39:47;;;;;;;53.17;32.67;;;;;;;;;;4329588;33;20298;-53
2021/03/03 07:42:18;;;;;;;118.33;68.83;;;;;;;;;;4325737;33;20200;-53
2021/03/03 07:44:46;;;;;;;148.30;78.77;;;;;;;;;;4322807;33;20236;-53
2021/03/03 07:47:12;;;;;;;81.80;49.50;;;;;;;;;;4323694;33;20207;-53
2021/03/03 07:49:40;;;;;;;112.37;62.83;;;;;;;;;;4325352;33;20307;-52
2021/03/03 07:52:07;;;;;;;66.83;39.63;;;;;;;;;;4321260;33;20646;-52
2021/03/03 07:54:33;;;;;;;172.90;95.13;;;;;;;;;;4324494;33;20278;-53
2021/03/03 07:57:02;;;;;;;72.90;45.10;;;;;;;;;;4318355;33;20320;-53
2021/03/03 07:59:28;;;;;;;81.63;42.47;;;;;;;;;;4320277;33;20330;-53
2021/03/03 08:01:53;;;;;;;68.83;38.80;;;;;;;;;;4321061;33;20358;-55
2021/03/03 08:04:35;;;;;;;71.70;36.67;;;;;;;;;;4317330;33;20703;-53
2021/03/03 08:07:19;;;;;;;68.60;37.00;;;;;;;;;;4318978;33;20652;-52
2021/03/03 08:10:13;;;;;;;50.07;29.57;;;;;;;;;;4322337;33;20215;-52
2021/03/03 08:13:11;;;;;;;45.53;23.33;;;;;;;;;;4323767;33;20360;-52
2021/03/03 08:15:57;;;;;;;33.30;22.70;;;;;;;;;;4322021;33;20420;-53
2021/03/03 08:18:26;;;;;;;36.87;22.77;;;;;;;;;;4322166;33;20226;-52
2021/03/03 08:20:55;;;;;;;42.93;25.13;;;;;;;;;;4321391;33;20500;-53
2021/03/03 08:23:37;;;;;;;41.63;23.27;;;;;;;;;;4328050;33;20578;-53
2021/03/03 08:26:03;;;;;;;75.97;43.87;;;;;;;;;;4322888;33;20215;-52
2021/03/03 08:28:36;;;;;;;38.10;23.50;;;;;;;;;;4339542;32;20255;-53
2021/03/03 08:31:08;;;;;;;39.20;24.47;;;;;;;;;;4320847;33;20212;-53
2021/03/03 08:33:35;;;;;;;38.20;20.17;;;;;;;;;;4323537;33;20677;-53
2021/03/03 08:36:01;;;;;;;42.90;21.03;;;;;;;;;;4324673;33;20572;-53
2021/03/03 08:38:26;;;;;;;32.17;22.87;;;;;;;;;;4325950;33;20224;-53
2021/03/03 08:40:52;;;;;;;33.13;19.63;;;;;;;;;;4320517;33;20305;-54
2021/03/03 08:43:37;;;;;;;35.83;21.17;;;;;;;;;;4348458;32;20344;-53
2021/03/03 08:46:20;;;;;;;71.33;36.90;;;;;;;;;;4329841;33;20449;-53
2021/03/03 08:48:46;;;;;;;65.13;37.93;;;;;;;;;;4322542;33;20261;-51
2021/03/03 08:51:30;;;;;;;46.10;27.23;;;;;;;;;;4339875;32;20324;-53
2021/03/03 08:53:57;;;;;;;56.33;31.50;;;;;;;;;;4320489;33;20292;-53
2021/03/03 08:56:40;;;;;;;36.80;22.77;;;;;;;;;;4324937;33;20259;-53
2021/03/03 08:59:30;;;;;;;30.37;21.10;;;;;;;;;;4317027;33;20253;-52
2021/03/03 09:02:05;;;;;;;46.33;28.03;;;;;;;;;;4340574;32;20242;-53
2021/03/03 09:04:38;;;;;;;25.10;17.60;;;;;;;;;;4327863;33;20332;-54
2021/03/03 09:07:13;;;;;;;56.13;40.00;;;;;;;;;;4322181;33;20211;-53
2021/03/03 09:09:48;;;;;;;72.23;39.87;;;;;;;;;;4323801;33;20662;-52
2021/03/03 09:12:16;;;;;;;97.80;54.10;;;;;;;;;;4328491;33;20195;-52
2021/03/03 09:14:44;;;;;;;32.63;21.77;;;;;;;;;;4319179;33;20263;-52
2021/03/03 09:17:12;;;;;;;37.20;22.33;;;;;;;;;;4319537;33;20350;-52
2021/03/03 09:19:37;;;;;;;29.07;15.80;;;;;;;;;;4320688;33;20751;-52
2021/03/03 09:22:42;;;;;;;26.97;16.67;;;;;;;;;;4325427;33;20270;-53
2021/03/03 09:25:22;;;;;;;22.90;14.37;;;;;;;;;;4319293;33;20321;-51
2021/03/03 09:27:58;;;;;;;22.20;13.40;;;;;;;;;;4321964;33;20245;-52
2021/03/03 09:30:26;;;;;;;25.30;16.20;;;;;;;;;;4318843;33;20533;-53
2021/03/03 09:32:53;;;;;;;21.47;13.53;;;;;;;;;;4321740;33;20565;-53
2021/03/03 09:35:29;;;;;;;20.23;14.63;;;;;;;;;;4334199;32;20333;-53
2021/03/03 09:37:56;;;;;;;18.73;13.47;;;;;;;;;;4318531;33;20691;-53
2021/03/03 09:40:27;;;;;;;24.17;12.33;;;;;;;;;;4321730;33;20219;-53
2021/03/03 09:42:53;;;;;;;19.87;13.27;;;;;;;;;;4330648;33;20277;-53
2021/03/03 09:45:20;;;;;;;17.00;12.07;;;;;;;;;;4322293;33;20326;-54
2021/03/03 09:47:46;;;;;;;22.87;13.73;;;;;;;;;;4321351;33;20242;-54
2021/03/03 09:50:13;;;;;;;16.17;11.93;;;;;;;;;;4318437;33;20274;-56
2021/03/03 09:52:44;;;;;;;19.80;11.27;;;;;;;;;;4324717;33;22066;-55
2021/03/03 09:55:14;;;;;;;18.20;11.87;;;;;;;;;;4320651;33;20327;-54
2021/03/03 09:57:42;;;;;;;17.63;12.13;;;;;;;;;;4316718;33;20279;-54
2021/03/03 10:00:14;;;;;;;15.60;10.60;;;;;;;;;;4323667;33;20253;-52
2021/03/03 10:02:46;;;;;;;16.00;10.10;;;;;;;;;;4320395;33;20207;-53
2021/03/03 10:05:33;;;;;;;17.33;10.83;;;;;;;;;;4331630;33;20235;-53
2021/03/03 10:08:00;;;;;;;19.57;10.73;;;;;;;;;;4320886;33;20227;-54
2021/03/03 10:10:29;;;;;;;14.47;9.63;;;;;;;;;;4325939;33;20240;-53
2021/03/03 10:12:55;;;;;;;15.23;9.93;;;;;;;;;;4319636;33;20242;-53
2021/03/03 10:15:22;;;;;;;15.63;9.80;;;;;;;;;;4322198;33;20314;-53
2021/03/03 10:17:54;;;;;;;28.67;14.77;;;;;;;;;;4325160;33;20325;-52
2021/03/03 10:20:50;;;;;;;26.23;14.23;;;;;;;;;;4327791;33;20255;-53
2021/03/03 10:23:21;;;;;;;178.87;105.40;;;;;;;;;;4328853;33;20570;-53
2021/03/03 10:25:50;;;;;;;29.23;17.47;;;;;;;;;;4324372;33;20303;-54
2021/03/03 10:28:18;;;;;;;18.17;14.47;;;;;;;;;;4325730;33;20211;-53
2021/03/03 10:30:43;;;;;;;20.90;13.43;;;;;;;;;;4323078;33;20230;-54
2021/03/03 10:33:11;;;;;;;21.60;13.67;;;;;;;;;;4322127;33;20235;-54
2021/03/03 10:35:48;;;;;;;26.37;16.63;;;;;;;;;;4316746;33;20220;-53
2021/03/03 10:38:16;;;;;;;17.33;11.20;;;;;;;;;;4346021;33;20243;-53
2021/03/03 10:40:44;;;;;;;18.00;10.73;;;;;;;;;;4320168;33;20613;-54
2021/03/03 10:43:24;;;;;;;16.33;11.33;;;;;;;;;;4320634;33;20257;-55
2021/03/03 10:46:14;;;;;;;20.23;11.43;;;;;;;;;;4319898;33;20273;-55
2021/03/03 10:48:40;;;;;;;14.30;9.97;;;;;;;;;;4311822;33;20251;-54
2021/03/03 10:51:07;;;;;;;27.73;15.13;;;;;;;;;;4343728;32;20360;-54
2021/03/03 10:53:57;;;;;;;40.20;25.37;;;;;;;;;;4330456;33;20254;-54
2021/03/03 10:56:27;;;;;;;15.90;10.40;;;;;;;;;;4327913;33;20606;-55
2021/03/03 10:58:54;;;;;;;23.97;13.90;;;;;;;;;;4329673;33;20273;-54
2021/03/03 11:01:19;;;;;;;53.17;33.50;;;;;;;;;;4321819;33;20223;-54
2021/03/03 11:03:54;;;;;;;29.00;20.50;;;;;;;;;;4329872;33;20231;-55
2021/03/03 11:06:21;;;;;;;90.53;57.13;;;;;;;;;;4321493;33;20403;-55
2021/03/03 11:08:47;;;;;;;14.30;8.07;;;;;;;;;;4323008;33;20456;-56
2021/03/03 11:11:14;;;;;;;7.87;6.10;;;;;;;;;;4321064;33;20336;-55
2021/03/03 11:13:39;;;;;;;179.93;106.10;;;;;;;;;;4347022;32;20242;-54
2021/03/03 11:16:06;;;;;;;382.60;214.03;;;;;;;;;;4321228;33;20401;-54
2021/03/03 11:18:32;;;;;;;25.77;18.00;;;;;;;;;;4322674;33;20775;-55
2021/03/03 11:20:58;;;;;;;29.27;19.50;;;;;;;;;;4319988;33;20366;-56
2021/03/03 11:23:24;;;;;;;58.13;32.80;;;;;;;;;;4324205;33;20261;-56
2021/03/03 11:25:49;;;;;;;19.93;11.90;;;;;;;;;;4322904;33;20338;-55
2021/03/03 11:28:15;;;;;;;14.27;8.93;;;;;;;;;;4323638;33;20258;-56
2021/03/03 11:30:41;;;;;;;12.97;9.17;;;;;;;;;;4343710;32;20676;-55
2021/03/03 11:33:07;;;;;;;12.77;8.30;;;;;;;;;;4325660;33;20227;-55
2021/03/03 11:35:32;;;;;;;203.83;126.37;;;;;;;;;;4322212;33;20741;-55
2021/03/03 11:37:58;;;;;;;95.93;69.53;;;;;;;;;;4323767;33;20235;-55
2021/03/03 11:40:24;;;;;;;208.73;121.17;;;;;;;;;;4323231;33;20680;-55
2021/03/03 11:42:50;;;;;;;20.23;13.97;;;;;;;;;;4319297;33;20250;-55
2021/03/03 11:45:16;;;;;;;13.90;9.50;;;;;;;;;;4326252;33;20501;-57
2021/03/03 11:47:42;;;;;;;9.90;7.37;;;;;;;;;;4324646;33;20222;-56
2021/03/03 11:50:09;;;;;;;17.67;11.93;;;;;;;;;;4324104;33;20329;-57
2021/03/03 11:52:34;;;;;;;17.60;8.90;;;;;;;;;;4324231;33;20254;-56
2021/03/03 11:55:00;;;;;;;11.50;7.57;;;;;;;;;;4329311;33;20371;-58
2021/03/03 11:57:26;;;;;;;8.20;5.93;;;;;;;;;;4322441;33;20301;-55
2021/03/03 11:59:52;;;;;;;7.20;4.97;;;;;;;;;;4325000;33;20395;-58
2021/03/03 12:02:17;;;;;;;8.97;5.53;;;;;;;;;;4324401;33;20740;-60
2021/03/03 12:04:43;;;;;;;6.00;3.87;;;;;;;;;;4324420;33;20833;-57
2021/03/03 12:07:08;;;;;;;8.90;5.40;;;;;;;;;;4320874;33;20404;-58
2021/03/03 12:09:34;;;;;;;9.03;4.90;;;;;;;;;;4322949;33;20273;-58
2021/03/03 12:12:00;;;;;;;8.40;4.57;;;;;;;;;;4322586;33;20313;-57
2021/03/03 12:14:26;;;;;;;7.32;4.03;;;;;;;;;;4327331;33;20581;-57
2021/03/03 12:16:52;;;;;;;12.17;4.87;;;;;;;;;;4324771;33;20349;-55
2021/03/03 12:19:18;;;;;;;6.85;4.12;;;;;;;;;;4325277;33;20433;-57
2021/03/03 12:21:43;;;;;;;4.55;3.62;;;;;;;;;;4322430;33;20329;-58
2021/03/03 12:24:09;;;;;;;6.68;3.92;;;;;;;;;;4324373;33;20302;-55
2021/03/03 12:26:34;;;;;;;5.25;3.17;;;;;;;;;;4324464;33;20324;-55
2021/03/03 12:29:00;;;;;;;7.90;3.83;;;;;;;;;;4321449;33;20293;-58
2021/03/03 12:31:25;;;;;;;29.73;8.57;;;;;;;;;;4327536;33;20278;-56
2021/03/03 12:33:51;;;;;;;9.97;4.70;;;;;;;;;;4322725;33;20818;-57
2021/03/03 12:36:17;;;;;;;3.67;2.95;;;;;;;;;;4319124;33;20320;-56
2021/03/03 12:38:42;;;;;;;5.57;3.47;;;;;;;;;;4321192;33;20300;-53
2021/03/03 12:41:08;;;;;;;5.45;2.80;;;;;;;;;;4346372;32;20338;-53
2021/03/03 12:43:33;;;;;;;7.03;3.05;;;;;;;;;;4345754;32;20321;-53
2021/03/03 12:45:59;;;;;;;4.82;3.40;;;;;;;;;;4326602;33;20290;-53
2021/03/03 12:48:24;;;;;;;6.28;4.37;;;;;;;;;;4316634;33;20246;-53
2021/03/03 12:50:50;;;;;;;8.48;3.97;;;;;;;;;;4326142;33;20829;-53
2021/03/03 12:53:15;;;;;;;6.55;4.37;;;;;;;;;;4333069;33;20250;-54
2021/03/03 12:55:41;;;;;;;6.10;4.65;;;;;;;;;;4322396;33;20320;-52
2021/03/03 12:58:06;;;;;;;8.50;5.30;;;;;;;;;;4326472;33;20257;-53
2021/03/03 13:00:32;;;;;;;12.95;7.57;;;;;;;;;;4325596;33;20428;-55
2021/03/03 13:02:57;;;;;;;11.80;3.70;;;;;;;;;;4350554;32;20725;-54
2021/03/03 13:05:23;;;;;;;10.25;4.05;;;;;;;;;;4320884;33;20278;-54
2021/03/03 13:07:48;;;;;;;9.40;4.17;;;;;;;;;;4325536;33;20731;-54
2021/03/03 13:10:15;;;;;;;7.57;4.57;;;;;;;;;;4325267;33;20633;-54
2021/03/03 13:12:40;;;;;;;6.17;4.07;;;;;;;;;;4327003;33;20457;-54
2021/03/03 13:15:07;;;;;;;11.83;5.20;;;;;;;;;;4326883;33;20301;-54
2021/03/03 13:17:33;;;;;;;9.37;4.47;;;;;;;;;;4323652;33;20227;-54
2021/03/03 13:19:59;;;;;;;8.17;3.97;;;;;;;;;;4320992;33;20452;-54
2021/03/03 13:22:26;;;;;;;13.07;4.93;;;;;;;;;;4319375;33;20760;-54
2021/03/03 13:24:52;;;;;;;8.95;5.35;;;;;;;;;;4312284;33;20671;-54
2021/03/03 13:27:17;;;;;;;7.85;4.65;;;;;;;;;;4311668;33;20282;-54
2021/03/03 13:29:43;;;;;;;7.75;4.87;;;;;;;;;;4335958;33;20270;-53
2021/03/03 13:32:11;;;;;;;7.90;4.45;;;;;;;;;;4315966;33;20684;-54
2021/03/03 13:34:40;;;;;;;7.23;4.57;;;;;;;;;;4333106;33;20239;-52
2021/03/03 13:37:09;;;;;;;6.65;4.43;;;;;;;;;;4339094;33;20299;-54
2021/03/03 13:39:36;;;;;;;6.35;4.03;;;;;;;;;;4341701;32;20541;-53
2021/03/03 13:42:02;;;;;;;7.07;5.20;;;;;;;;;;4342400;32;20717;-54
2021/03/03 13:44:27;;;;;;;6.25;4.80;;;;;;;;;;4342632;33;20231;-54
2021/03/03 13:46:53;;;;;;;14.57;3.97;;;;;;;;;;4343016;32;20581;-56
2021/03/03 13:49:19;;;;;;;15.98;5.20;;;;;;;;;;4330670;32;20344;-54
2021/03/03 13:51:44;;;;;;;10.63;4.53;;;;;;;;;;4328507;33;20282;-53
2021/03/03 13:54:10;;;;;;;5.30;3.67;;;;;;;;;;4328418;33;20764;-53
2021/03/03 13:56:35;;;;;;;9.57;4.47;;;;;;;;;;4328066;33;20296;-53
2021/03/03 13:59:01;;;;;;;5.70;3.80;;;;;;;;;;4328466;33;20240;-53
2021/03/03 14:01:27;;;;;;;8.93;4.07;;;;;;;;;;4328458;33;20296;-55
2021/03/03 14:03:53;;;;;;;4.82;3.72;;;;;;;;;;4328168;33;20236;-53
2021/03/03 14:06:18;;;;;;;6.73;3.53;;;;;;;;;;4328134;33;20623;-54
2021/03/03 14:08:43;;;;;;;4.97;3.50;;;;;;;;;;4328388;33;20232;-53
2021/03/03 14:11:09;;;;;;;16.60;5.00;;;;;;;;;;4327896;33;20304;-55
2021/03/03 14:13:35;;;;;;;7.82;6.37;;;;;;;;;;4326063;33;20812;-53
2021/03/03 14:16:00;;;;;;;5.60;3.67;;;;;;;;;;4322622;33;20321;-53
2021/03/03 14:18:26;;;;;;;8.10;4.60;;;;;;;;;;4321424;33;20223;-54
2021/03/03 14:20:51;;;;;;;4.15;3.45;;;;;;;;;;4348140;32;20404;-54
2021/03/03 14:23:17;;;;;;;10.00;3.70;;;;;;;;;;4328849;33;20278;-54
2021/03/03 14:25:43;;;;;;;8.50;4.47;;;;;;;;;;4330249;33;20308;-54
2021/03/03 14:28:09;;;;;;;8.25;5.22;;;;;;;;;;4330790;33;20294;-55